Weather at Tiranë Helicopter Base

Public forecast

Using degrees Celsius for public forecast. Weather courtesy of forecast.io.

Closest aviation weather report (METAR) to Tiranë Helicopter Base

Closest report is Tirana International Airport Mother Teresa, 9.5 nm (17.6 km) NW.

2024/06/16 21:20 (retrieved 14 minutes ago)

LATI 162120Z 22005KT CAVOK 23/16 Q1013 NOSIG

Closest aviation forecast (TAF) to Tiranë Helicopter Base

Closest forecast is Tirana International Airport Mother Teresa, 9.5 nm (17.6 km) NW.

2024/06/16 18:06 (retrieved 3 hours ago)

TAF LATI 161700Z 1618/1718 VRB05KT CAVOK TX33/1712Z TN18/1704Z BECMG 1710/1712 33012KT